Wanamakers, Pennsylvania
Current Conditions -  °F | °C
As of 5:03 AM on Monday 22 Dec 2014 (Local Time) from KRDG Reporting Station
Haze Haze  
Wind Chill: 22°   Ceiling: 2200
Heat Index: 22°   Visibility: 6mi
Dew Point: 18°   Wind: 0mph
Humidity: 85%   Direction: NA
Pressure: 30.29"   Gusts: NA
Location:  40.6329°N, 75.8768°W
Report Text: KRDG 221003Z AUTO 00000KT 6SM BR BKN022 M06/M08 A3029 RMK AO2 T10561078
Loading
Personal Weather Stations






























Interactive Weather Map New forecast layout! Learn more

10-Day Weather Forecast

Advertisements
Track Severe Weather on mobile